»·PEaware :: USC243 KLAS-KMRY

USC243 :: KLAS-KMRY

FLIGHT INFORMATION

Flight Status: Arrived
Operator: Unknown
More flights by this operator :: More flights under this callsign
Pilot: Andy P. (22680)
Aircraft: GATES LEARJET LEARJET 35/36
(LJ35)
More flights by this aircraft type
Origin: KLAS McCarran Intl
United States
Destination: KMRY Monterey Peninsula
United States
More flights between these airports :: More routes between these airports
Route: SHEAD1 KENNO BIH PXN SNS
File this flight plan on PilotEdge
Remarks:
Altitude:
(Current/Filed)
38,000ft
Speed:
(Current/Filed)
465kts
Departed: 18-May-19 05:09 PM
Arrived: 18-May-19 06:25 PM
Distance/Time
Traveled:
326nm/1:16
Distance/Time
To Go:
Arrived

Flight Plot

Page will automatically refresh every two minutes.

Flight plan parsing failed; only flown route is shown


Map Options




Map Legend


Flown Route
Filed Route
Departure Airport
Arrival Airport
Navaid (VOR, NDB)
Fix

Horizontal Profiles

Position Reports

Time Latitude Longitude Heading Altitude Ground
Speed
18-May-19 16:16 36.082950 -115.125689 90 2184ft 0kts
18-May-19 16:17 36.082950 -115.125689 90 2184ft 0kts
18-May-19 16:18 36.082950 -115.125689 90 2184ft 0kts
18-May-19 16:19 36.082950 -115.125689 90 2184ft 0kts
18-May-19 16:20 36.082950 -115.125689 90 2184ft 0kts
18-May-19 16:21 36.082950 -115.125689 90 2184ft 0kts
18-May-19 16:22 36.082950 -115.125689 90 2184ft 0kts
18-May-19 16:23 36.082950 -115.125689 90 2184ft 0kts
18-May-19 16:24 36.082950 -115.125689 90 2184ft 0kts
18-May-19 16:25 36.082950 -115.125689 90 2184ft 0kts
18-May-19 16:26 36.082950 -115.125689 90 2184ft 0kts
18-May-19 16:27 36.082950 -115.125689 90 2184ft 0kts
18-May-19 16:28 36.082950 -115.125689 90 2184ft 0kts
18-May-19 16:29 36.082950 -115.125689 90 2184ft 0kts
18-May-19 16:30 36.082950 -115.125689 90 2184ft 0kts
18-May-19 16:31 36.082950 -115.125689 90 2184ft 0kts
18-May-19 16:32 36.082950 -115.125689 90 2184ft 0kts
18-May-19 16:33 36.082950 -115.125689 90 2184ft 0kts
18-May-19 16:34 36.082950 -115.125689 90 2184ft 0kts
18-May-19 16:35 36.082950 -115.125689 90 2184ft 0kts
18-May-19 16:36 36.082950 -115.125689 90 2184ft 0kts
18-May-19 16:37 36.082950 -115.125689 90 2184ft 0kts
18-May-19 16:38 36.082950 -115.125689 90 2184ft 0kts
18-May-19 16:39 36.082950 -115.125689 90 2184ft 0kts
18-May-19 16:40 36.082950 -115.125689 90 2184ft 0kts
18-May-19 16:41 36.082950 -115.125689 90 2184ft 0kts
18-May-19 16:42 36.082950 -115.125689 90 2184ft 0kts
18-May-19 16:43 36.082950 -115.125689 90 2184ft 0kts
18-May-19 16:44 36.082950 -115.125689 90 2184ft 0kts
18-May-19 16:45 36.082950 -115.125689 90 2184ft 0kts
18-May-19 16:46 36.082950 -115.125689 90 2184ft 0kts
18-May-19 16:47 36.082950 -115.125689 90 2184ft 0kts
18-May-19 16:48 36.082950 -115.125689 90 2184ft 0kts
18-May-19 16:49 36.082950 -115.125689 90 2184ft 0kts
18-May-19 16:50 36.082950 -115.125689 90 2184ft 0kts
18-May-19 16:51 36.082950 -115.125689 90 2184ft 0kts
18-May-19 16:52 36.082950 -115.125689 90 2184ft 0kts
18-May-19 16:53 36.082950 -115.125689 90 2184ft 0kts
18-May-19 16:54 36.082950 -115.125689 90 2184ft 0kts
18-May-19 16:55 36.082950 -115.125689 90 2184ft 0kts
18-May-19 16:56 36.082950 -115.125689 90 2184ft 0kts
18-May-19 16:57 36.082950 -115.125689 90 2184ft 0kts
18-May-19 16:58 36.082950 -115.125689 90 2184ft 0kts
18-May-19 16:59 36.082950 -115.125689 90 2184ft 0kts
18-May-19 17:00 36.082950 -115.125689 90 2184ft 0kts
18-May-19 17:01 36.082950 -115.125689 90 2184ft 0kts
18-May-19 17:02 36.082950 -115.125689 90 2184ft 0kts
18-May-19 17:03 36.082637 -115.125769 219 2184ft 5kts
18-May-19 17:04 36.079515 -115.126407 178 2184ft 20kts
18-May-19 17:05 36.078200 -115.122564 119 2184ft 12kts
18-May-19 17:06 36.077521 -115.121514 146 2184ft 0kts
18-May-19 17:07 36.076393 -115.122488 270 2184ft 27kts
18-May-19 17:08 36.077129 -115.170636 270 3418ft 188kts
18-May-19 17:09 36.072334 -115.243821 234 5706ft 224kts
18-May-19 17:10 36.016339 -115.282508 200 6706ft 226kts
18-May-19 17:11 35.959925 -115.314277 225 6970ft 228kts
18-May-19 17:12 35.914834 -115.371592 221 8522ft 237kts
18-May-19 17:13 35.884780 -115.442548 277 9721ft 267kts
18-May-19 17:14 35.889318 -115.544283 264 10943ft 319kts
18-May-19 17:15 35.892557 -115.649737 269 11029ft 302kts
18-May-19 17:16 35.892470 -115.762814 268 14976ft 341kts
18-May-19 17:18 35.894377 -115.882590 269 19469ft 357kts
18-May-19 17:19 35.915406 -116.002064 306 23496ft 386kts
18-May-19 17:20 35.999122 -116.091086 311 27148ft 401kts
18-May-19 17:21 36.081182 -116.184616 308 30667ft 394kts
18-May-19 17:22 36.159509 -116.275116 307 33974ft 378kts
18-May-19 17:23 36.235152 -116.362810 305 36546ft 368kts
18-May-19 17:24 36.310221 -116.450210 305 37837ft 381kts
18-May-19 17:25 36.389392 -116.542520 305 37847ft 398kts
18-May-19 17:26 36.470730 -116.637569 305 37846ft 402kts
18-May-19 17:27 36.552085 -116.732969 305 37848ft 401kts
18-May-19 17:28 36.648514 -116.811684 315 37852ft 418kts
18-May-19 17:29 36.747867 -116.887621 316 37852ft 419kts
18-May-19 17:30 36.847373 -116.963550 316 37852ft 420kts
18-May-19 17:31 36.947328 -117.040023 316 37850ft 421kts
18-May-19 17:32 37.047210 -117.116674 315 37809ft 423kts
18-May-19 17:33 37.147635 -117.193975 315 37804ft 423kts
18-May-19 17:34 37.247952 -117.271445 315 37804ft 423kts
18-May-19 17:35 37.317239 -117.371621 270 37802ft 361kts
18-May-19 17:36 37.315883 -117.496605 266 37807ft 359kts
18-May-19 17:37 37.322746 -117.622472 269 37801ft 362kts
18-May-19 17:37 37.330532 -117.727594 269 37798ft 362kts
18-May-19 17:39 37.341504 -117.874913 269 37798ft 362kts
18-May-19 17:39 37.349271 -117.980280 269 37791ft 363kts
18-May-19 17:40 37.358453 -118.106351 268 37784ft 363kts
18-May-19 17:42 37.369032 -118.253996 268 37779ft 362kts
18-May-19 17:42 37.375985 -118.358864 265 37775ft 359kts
18-May-19 17:43 37.348515 -118.476999 250 37780ft 353kts
18-May-19 17:44 37.317345 -118.593966 250 37795ft 353kts
18-May-19 17:45 37.286237 -118.711219 250 37823ft 353kts
18-May-19 17:46 37.255211 -118.827914 250 37848ft 352kts
18-May-19 17:47 37.224196 -118.944021 249 38020ft 350kts
18-May-19 17:48 37.192942 -119.060465 249 37948ft 352kts
18-May-19 17:49 37.161619 -119.176692 249 37966ft 352kts
18-May-19 17:50 37.130070 -119.293245 249 37977ft 352kts
18-May-19 17:51 37.098528 -119.409258 249 37542ft 349kts
18-May-19 17:52 37.067776 -119.521868 249 35581ft 335kts
18-May-19 17:53 37.037643 -119.631697 249 33682ft 337kts
18-May-19 17:54 37.006115 -119.746222 250 31704ft 359kts
18-May-19 17:55 36.972495 -119.867429 250 29596ft 377kts
18-May-19 17:56 36.937652 -119.993831 250 27427ft 389kts
18-May-19 17:57 36.902374 -120.122721 249 25144ft 403kts
18-May-19 17:58 36.863922 -120.257135 249 23972ft 409kts
18-May-19 17:59 36.825868 -120.391635 249 22955ft 389kts
18-May-19 18:00 36.792861 -120.507999 249 19605ft 329kts
18-May-19 18:01 36.763745 -120.610231 248 16892ft 300kts
18-May-19 18:02 36.736355 -120.706062 249 14192ft 288kts
18-May-19 18:03 36.713853 -120.800447 264 11500ft 285kts
18-May-19 18:04 36.709420 -120.892629 262 10365ft 255kts
18-May-19 18:05 36.705226 -120.982150 271 10049ft 256kts
18-May-19 18:06 36.714508 -121.073190 274 10053ft 268kts
18-May-19 18:07 36.724819 -121.160319 274 10037ft 245kts
18-May-19 18:08 36.734505 -121.246291 274 10042ft 255kts
18-May-19 18:09 36.744031 -121.333848 274 10045ft 251kts
18-May-19 18:10 36.753559 -121.418939 274 9785ft 257kts
18-May-19 18:11 36.762955 -121.504302 274 8259ft 255kts
18-May-19 18:12 36.772998 -121.591734 274 6673ft 253kts
18-May-19 18:13 36.783478 -121.674507 274 6036ft 224kts
18-May-19 18:14 36.794162 -121.753673 275 6045ft 242kts
18-May-19 18:15 36.805014 -121.838445 274 6046ft 247kts
18-May-19 18:16 36.815394 -121.925715 274 4631ft 260kts
18-May-19 18:17 36.806582 -122.009446 217 3091ft 240kts
18-May-19 18:18 36.749520 -122.049505 204 2990ft 230kts
18-May-19 18:19 36.690684 -122.072619 159 2985ft 216kts
18-May-19 18:20 36.648559 -122.028563 119 2983ft 192kts
18-May-19 18:21 36.627445 -121.962946 116 1981ft 201kts
18-May-19 18:22 36.607616 -121.905108 115 1030ft 141kts
18-May-19 18:23 36.594941 -121.867699 115 393ft 111kts
18-May-19 18:24 36.587134 -121.845926 195 208ft 11kts
18-May-19 18:25 36.589206 -121.853386 285 208ft 28kts
18-May-19 18:26 36.589218 -121.858546 343 208ft 0kts
18-May-19 18:27 36.589218 -121.858546 343 208ft 0kts

Navigation Log

Ident Type
Flight plan parsing failed, navigation log unavailable